Time;durP1;ratioP1;P1;durP2;ratioP2;P2;SDS_P1;SDS_P2;PMS_P1;PMS_P2;Temp;Humidity;BMP_temperature;BMP_pressure;BME280_temperature;BME280_humidity;BME280_pressure;Samples;Min_cycle;Max_cycle;Signal;HPM_P1;HPM_P2
2022/03/29 00:01:54;;;;;;;0.60;0.20;;;14.90;99.90;;;;;;4994504;28;21044;-67
2022/03/29 00:04:22;;;;;;;1.80;1.17;;;14.90;99.90;;;;;;5002615;28;20587;-65
2022/03/29 00:06:50;;;;;;;1.70;1.60;;;14.90;99.90;;;;;;5008364;28;20457;-66
2022/03/29 00:09:18;;;;;;;1.70;1.60;;;14.80;99.90;;;;;;5013776;28;20466;-66
2022/03/29 00:11:47;;;;;;;0.60;0.20;;;14.80;99.90;;;;;;5013097;28;20447;-65
2022/03/29 00:14:15;;;;;;;1.23;0.60;;;14.80;99.90;;;;;;5013438;28;20941;-67
2022/03/29 00:16:45;;;;;;;0.60;0.10;;;14.80;99.90;;;;;;5004553;28;20950;-66
2022/03/29 00:19:13;;;;;;;0.60;0.10;;;14.70;99.90;;;;;;5011510;28;20454;-66
2022/03/29 00:21:41;;;;;;;3.60;2.00;;;14.70;99.90;;;;;;5013440;28;20489;-66
2022/03/29 00:24:09;;;;;;;2.83;2.63;;;14.70;99.90;;;;;;5013384;28;20450;-66
2022/03/29 00:26:37;;;;;;;5.43;1.13;;;14.70;99.90;;;;;;4996205;28;20967;-66
2022/03/29 00:29:05;;;;;;;2.40;0.83;;;14.60;99.90;;;;;;4993725;28;21036;-66
2022/03/29 00:31:33;;;;;;;2.57;2.40;;;14.60;99.90;;;;;;4993644;28;20455;-66
2022/03/29 00:34:02;;;;;;;0.70;0.40;;;14.60;99.90;;;;;;4993788;28;20464;-65
2022/03/29 00:36:31;;;;;;;0.60;0.30;;;14.60;99.90;;;;;;4983622;28;20454;-67
2022/03/29 00:38:59;;;;;;;1.47;1.37;;;14.60;99.90;;;;;;4974459;28;20547;-67
2022/03/29 00:41:27;;;;;;;0.60;0.37;;;14.50;99.90;;;;;;4974428;28;20572;-65
2022/03/29 00:43:55;;;;;;;0.80;0.33;;;14.50;99.90;;;;;;4973957;28;20450;-64
2022/03/29 00:46:23;;;;;;;4.60;3.20;;;14.50;99.90;;;;;;4982008;28;20444;-66
2022/03/29 00:48:51;;;;;;;1.23;1.13;;;14.40;99.90;;;;;;4993297;28;20445;-66
2022/03/29 00:51:20;;;;;;;1.43;1.27;;;14.40;99.90;;;;;;4993401;28;20469;-66
2022/03/29 00:53:49;;;;;;;1.47;1.37;;;14.40;99.90;;;;;;4991630;28;20445;-66
2022/03/29 00:56:19;;;;;;;1.87;1.23;;;14.30;99.90;;;;;;4973709;28;20449;-66
2022/03/29 00:58:47;;;;;;;2.20;1.87;;;14.30;99.90;;;;;;4973755;28;20442;-67
2022/03/29 01:01:16;;;;;;;2.00;1.13;;;14.30;99.90;;;;;;4983889;28;20485;-66
2022/03/29 01:03:44;;;;;;;3.03;2.83;;;14.30;99.90;;;;;;4992852;28;20500;-66
2022/03/29 01:06:13;;;;;;;0.60;0.30;;;14.30;99.90;;;;;;4991558;28;20478;-67
2022/03/29 01:08:44;;;;;;;0.60;0.10;;;14.20;99.90;;;;;;4994148;28;20481;-66
2022/03/29 01:11:12;;;;;;;0.93;0.60;;;14.20;99.90;;;;;;4985357;28;20590;-66
2022/03/29 01:13:42;;;;;;;95.63;53.83;;;14.30;99.90;;;;;;4992852;28;20444;-66
2022/03/29 01:19:13;;;;;;;1.57;0.40;;;14.20;99.90;;;;;;4970189;28;20553;-65
2022/03/29 01:21:42;;;;;;;2.20;1.77;;;14.20;99.90;;;;;;4971048;28;20444;-67
2022/03/29 01:24:13;;;;;;;0.60;0.10;;;14.10;99.90;;;;;;4975658;28;20464;-65
2022/03/29 01:26:41;;;;;;;0.60;0.10;;;14.10;99.90;;;;;;4989632;28;20941;-66
2022/03/29 01:29:10;;;;;;;0.60;0.10;;;14.10;99.90;;;;;;4992344;28;20450;-67
2022/03/29 01:31:38;;;;;;;2.40;2.20;;;14.10;99.90;;;;;;4993090;28;20604;-66
2022/03/29 01:34:07;;;;;;;1.83;1.73;;;14.00;99.90;;;;;;4993071;28;20442;-65
2022/03/29 01:36:35;;;;;;;0.90;0.77;;;14.00;99.90;;;;;;4992801;28;20457;-66
2022/03/29 01:39:03;;;;;;;0.70;0.50;;;14.00;99.90;;;;;;4992424;28;20477;-66
2022/03/29 01:41:33;;;;;;;2.43;2.33;;;13.90;99.90;;;;;;4992296;28;20546;-66
2022/03/29 01:44:01;;;;;;;0.70;0.40;;;13.80;99.90;;;;;;4992382;28;20439;-65
2022/03/29 01:46:29;;;;;;;1.83;1.73;;;13.80;99.90;;;;;;4992290;28;20460;-66
2022/03/29 01:48:59;;;;;;;1.90;1.80;;;13.80;99.90;;;;;;4991639;28;20457;-66
2022/03/29 01:51:27;;;;;;;2.80;2.00;;;13.70;99.90;;;;;;4992216;28;20480;-66
2022/03/29 01:53:56;;;;;;;4.73;2.13;;;13.80;99.90;;;;;;4990399;28;20453;-66
2022/03/29 01:56:28;;;;;;;1.10;0.80;;;13.70;99.90;;;;;;4991934;28;20455;-66
2022/03/29 01:58:57;;;;;;;0.80;0.60;;;13.60;99.90;;;;;;4992239;28;20488;-65
2022/03/29 02:01:26;;;;;;;1.27;0.50;;;13.60;99.90;;;;;;4992038;28;20976;-65
2022/03/29 02:03:55;;;;;;;0.60;0.10;;;13.60;99.90;;;;;;4991958;28;21084;-65
2022/03/29 02:06:22;;;;;;;0.60;0.20;;;13.60;99.90;;;;;;4991689;28;20462;-66
2022/03/29 02:08:50;;;;;;;1.53;1.43;;;13.50;99.90;;;;;;4991795;28;20451;-67
2022/03/29 02:11:18;;;;;;;0.60;0.20;;;13.50;99.90;;;;;;4978512;28;20491;-67
2022/03/29 02:13:47;;;;;;;0.60;0.20;;;13.50;99.90;;;;;;4972433;28;20534;-65
2022/03/29 02:16:16;;;;;;;0.60;0.20;;;13.50;99.90;;;;;;4973814;28;20513;-65
2022/03/29 02:18:44;;;;;;;0.60;0.10;;;13.50;99.90;;;;;;4973713;28;20490;-65
2022/03/29 02:21:15;;;;;;;0.73;0.63;;;13.60;99.90;;;;;;4972121;28;20796;-66
2022/03/29 02:23:43;;;;;;;0.60;0.10;;;13.60;99.90;;;;;;4972589;28;20501;-66
2022/03/29 02:26:11;;;;;;;0.60;0.10;;;13.60;99.90;;;;;;4983701;28;20443;-66
2022/03/29 02:28:39;;;;;;;0.70;0.37;;;13.60;99.90;;;;;;4992335;28;20459;-66
2022/03/29 02:31:07;;;;;;;1.23;1.13;;;13.60;99.90;;;;;;4992707;28;20889;-67
2022/03/29 02:33:36;;;;;;;0.60;0.20;;;13.50;99.90;;;;;;4992353;28;20968;-66
2022/03/29 02:36:05;;;;;;;1.03;0.93;;;13.50;99.90;;;;;;4994904;28;20441;-66
2022/03/29 02:38:32;;;;;;;3.40;3.20;;;13.30;99.90;;;;;;4995710;28;20600;-67
2022/03/29 02:41:00;;;;;;;0.60;0.20;;;13.30;99.90;;;;;;4996027;28;20474;-65
2022/03/29 02:43:28;;;;;;;1.27;0.67;;;13.30;99.90;;;;;;4994527;28;20473;-66
2022/03/29 02:45:57;;;;;;;0.60;0.10;;;13.30;99.90;;;;;;4996347;28;20485;-66
2022/03/29 02:48:25;;;;;;;0.60;0.10;;;13.30;99.90;;;;;;4995859;28;20449;-66
2022/03/29 02:50:55;;;;;;;4.37;1.80;;;13.30;99.90;;;;;;4988035;28;20947;-66
2022/03/29 02:53:22;;;;;;;0.60;0.20;;;13.30;99.90;;;;;;4995054;28;20438;-65
2022/03/29 02:55:50;;;;;;;0.70;0.37;;;13.20;99.90;;;;;;4995695;28;20446;-65
2022/03/29 02:58:18;;;;;;;0.60;0.10;;;13.20;99.90;;;;;;4995117;28;20548;-66
2022/03/29 03:00:46;;;;;;;0.60;0.10;;;13.20;99.90;;;;;;4986384;28;20477;-66
2022/03/29 03:03:14;;;;;;;0.60;0.10;;;13.20;99.90;;;;;;4991803;28;20480;-66
2022/03/29 03:05:43;;;;;;;0.60;0.10;;;13.20;99.90;;;;;;4994692;28;20496;-67
2022/03/29 03:08:13;;;;;;;0.60;0.20;;;13.20;99.90;;;;;;4991623;28;20456;-67
2022/03/29 03:10:40;;;;;;;0.60;0.10;;;13.20;99.90;;;;;;4994940;28;20476;-66
2022/03/29 03:13:09;;;;;;;7.13;1.20;;;13.10;99.90;;;;;;4995193;28;20510;-66
2022/03/29 03:15:36;;;;;;;0.60;0.20;;;13.10;99.90;;;;;;4988822;28;20580;-66
2022/03/29 03:18:05;;;;;;;0.60;0.10;;;13.00;99.90;;;;;;4985747;28;20473;-66
2022/03/29 03:20:32;;;;;;;0.60;0.20;;;12.90;99.90;;;;;;4988863;28;20476;-66
2022/03/29 03:23:02;;;;;;;0.60;0.20;;;12.90;99.90;;;;;;4994572;28;20486;-66
2022/03/29 03:25:31;;;;;;;0.60;0.10;;;12.90;99.90;;;;;;4994510;28;20438;-66
2022/03/29 03:27:59;;;;;;;3.33;2.23;;;12.90;99.90;;;;;;4994132;28;20958;-67
2022/03/29 03:30:27;;;;;;;0.60;0.10;;;12.90;99.90;;;;;;4994964;28;20995;-66
2022/03/29 03:32:55;;;;;;;0.60;0.10;;;12.80;99.90;;;;;;4995155;28;20917;-66
2022/03/29 03:35:23;;;;;;;0.60;0.10;;;12.80;99.90;;;;;;4992757;28;20449;-67
2022/03/29 03:37:51;;;;;;;2.60;2.50;;;12.70;99.90;;;;;;4994727;28;20794;-65
2022/03/29 03:40:19;;;;;;;0.63;0.33;;;12.70;99.90;;;;;;4994522;28;20472;-65
2022/03/29 03:42:48;;;;;;;8.33;2.73;;;12.60;99.90;;;;;;4994658;28;20453;-67
2022/03/29 03:45:16;;;;;;;0.70;0.33;;;12.50;1.00;;;;;;4994715;28;20486;-66
2022/03/29 03:47:46;;;;;;;3.80;3.50;;;12.50;1.00;;;;;;4993216;28;20808;-66
2022/03/29 03:50:14;;;;;;;0.60;0.10;;;12.50;1.00;;;;;;4993902;28;20478;-65
2022/03/29 03:52:42;;;;;;;1.90;1.03;;;12.50;1.00;;;;;;4994259;28;20445;-66
2022/03/29 03:55:10;;;;;;;0.60;0.10;;;12.50;1.00;;;;;;4994055;28;20476;-65
2022/03/29 03:57:38;;;;;;;0.70;0.50;;;12.50;1.00;;;;;;4993613;28;20454;-67
2022/03/29 04:00:08;;;;;;;0.70;0.70;;;12.40;1.00;;;;;;4994118;28;20469;-65
2022/03/29 04:02:36;;;;;;;1.80;1.33;;;12.40;1.00;;;;;;5000952;28;20467;-66
2022/03/29 04:05:08;;;;;;;9.30;8.30;;;12.40;1.00;;;;;;5005239;28;20527;-67
2022/03/29 04:07:35;;;;;;;1.93;1.37;;;12.30;1.00;;;;;;5009519;28;20461;-66
2022/03/29 04:10:04;;;;;;;6.60;0.93;;;12.30;1.00;;;;;;4988315;28;20509;-66
2022/03/29 04:12:32;;;;;;;0.60;0.10;;;12.30;1.00;;;;;;5006198;28;20441;-65
2022/03/29 04:15:00;;;;;;;0.93;0.93;;;12.30;1.00;;;;;;5013683;28;20440;-66
2022/03/29 04:17:29;;;;;;;28.33;1.63;;;12.30;1.00;;;;;;5012542;28;20440;-69
2022/03/29 04:19:57;;;;;;;0.87;0.87;;;12.30;1.00;;;;;;5001657;28;20480;-67
2022/03/29 04:22:25;;;;;;;0.60;0.20;;;12.30;1.00;;;;;;5013182;28;20458;-65
2022/03/29 04:24:53;;;;;;;0.60;0.10;;;12.30;1.00;;;;;;4998314;28;20474;-65
2022/03/29 04:27:21;;;;;;;21.13;20.27;;;12.20;1.00;;;;;;4993436;28;20452;-67
2022/03/29 04:29:49;;;;;;;0.60;0.10;;;12.20;1.00;;;;;;4993388;28;20461;-65
2022/03/29 04:32:16;;;;;;;4.73;2.90;;;12.20;1.00;;;;;;4993875;28;20457;-65
2022/03/29 04:34:47;;;;;;;1.47;0.97;;;12.20;1.00;;;;;;4996139;28;20446;-67
2022/03/29 04:37:15;;;;;;;0.60;0.10;;;12.20;1.00;;;;;;5011820;28;20436;-66
2022/03/29 04:39:43;;;;;;;0.60;0.20;;;12.20;1.00;;;;;;5013308;28;20468;-66
2022/03/29 04:42:11;;;;;;;0.60;0.10;;;12.20;1.00;;;;;;4992231;28;20450;-66
2022/03/29 04:44:39;;;;;;;1.10;0.70;;;12.20;1.00;;;;;;4982560;28;20588;-66
2022/03/29 04:47:07;;;;;;;6.67;3.17;;;12.20;1.00;;;;;;4993245;28;20450;-66
2022/03/29 04:49:35;;;;;;;13.13;8.00;;;12.10;1.00;;;;;;4993638;28;20473;-65
2022/03/29 04:52:06;;;;;;;2.10;2.00;;;12.10;1.00;;;;;;4993562;28;20457;-66
2022/03/29 04:54:34;;;;;;;1.03;0.93;;;12.00;1.00;;;;;;4993257;28;20456;-65
2022/03/29 04:57:03;;;;;;;0.93;0.80;;;12.00;1.00;;;;;;4996160;28;21055;-65
2022/03/29 04:59:31;;;;;;;2.47;2.27;;;11.90;1.00;;;;;;4987928;28;20473;-65
2022/03/29 05:01:59;;;;;;;0.73;0.73;;;11.90;1.00;;;;;;4981251;28;20462;-66
2022/03/29 05:04:27;;;;;;;2.53;2.33;;;11.90;1.00;;;;;;4974102;28;20997;-66
2022/03/29 05:06:55;;;;;;;5.70;1.10;;;11.80;1.00;;;;;;4974032;28;20446;-66
2022/03/29 05:09:24;;;;;;;0.70;0.20;;;11.80;1.00;;;;;;4976851;28;20452;-66
2022/03/29 05:11:52;;;;;;;0.70;0.47;;;11.80;1.00;;;;;;4993717;28;20452;-66
2022/03/29 05:14:20;;;;;;;2.90;2.70;;;11.80;1.00;;;;;;4993062;28;20440;-67
2022/03/29 05:16:48;;;;;;;3.87;3.60;;;11.80;1.00;;;;;;4990466;28;20457;-66
2022/03/29 05:19:16;;;;;;;0.67;0.27;;;11.70;1.00;;;;;;4991532;28;20444;-66
2022/03/29 05:21:44;;;;;;;0.93;0.93;;;11.70;1.00;;;;;;4992357;28;20452;-66
2022/03/29 05:24:12;;;;;;;0.70;0.50;;;11.70;1.00;;;;;;4986735;28;20497;-67
2022/03/29 05:26:42;;;;;;;5.83;3.70;;;11.70;1.00;;;;;;4988838;28;20445;-66
2022/03/29 05:29:11;;;;;;;4.60;2.77;;;11.60;1.00;;;;;;4991982;28;20816;-66
2022/03/29 05:31:39;;;;;;;0.60;0.40;;;;;;;;;;4991578;28;20455;-64
2022/03/29 05:34:14;;;;;;;2.40;2.00;;;11.60;1.00;;;;;;4983692;28;20970;-66
2022/03/29 05:36:45;;;;;;;1.57;1.47;;;11.60;1.00;;;;;;4987660;28;20950;-67
2022/03/29 05:39:14;;;;;;;4.67;4.27;;;11.50;1.00;;;;;;5003177;28;20472;-66
2022/03/29 05:41:44;;;;;;;9.23;4.07;;;11.50;1.00;;;;;;4991464;28;20436;-66
2022/03/29 05:44:12;;;;;;;2.10;1.50;;;11.50;1.00;;;;;;4982846;28;20481;-66
2022/03/29 05:49:26;;;;;;;3.57;3.20;;;11.50;1.00;;;;;;4966644;28;20453;-66
2022/03/29 05:51:54;;;;;;;0.83;0.70;;;11.50;1.00;;;;;;5008365;28;20449;-67
2022/03/29 05:54:22;;;;;;;7.60;3.23;;;11.50;1.00;;;;;;5007307;28;20525;-66
2022/03/29 05:56:51;;;;;;;0.97;0.93;;;11.50;1.00;;;;;;4999074;28;20445;-66
2022/03/29 05:59:19;;;;;;;0.90;0.77;;;11.50;1.00;;;;;;4996601;28;20705;-67
2022/03/29 06:01:51;;;;;;;3.43;2.33;;;11.50;1.00;;;;;;5004421;28;20477;-66
2022/03/29 06:04:25;;;;;;;1.93;1.40;;;11.60;1.00;;;;;;4991761;28;20523;-66
2022/03/29 06:07:01;;;;;;;4.40;2.50;;;11.60;1.00;;;;;;4975623;28;20446;-67
2022/03/29 06:09:35;;;;;;;2.17;1.20;;;11.60;1.00;;;;;;4972151;28;20557;-66
2022/03/29 06:12:13;;;;;;;7.40;3.40;;;11.60;1.00;;;;;;4972379;28;20906;-67
2022/03/29 06:14:44;;;;;;;0.60;0.20;;;11.70;1.00;;;;;;4983084;28;20441;-66
2022/03/29 06:17:24;;;;;;;0.77;0.70;;;11.60;1.00;;;;;;4992511;28;20832;-65
2022/03/29 06:19:56;;;;;;;0.60;0.20;;;11.60;1.00;;;;;;4992940;28;20469;-67
2022/03/29 06:22:25;;;;;;;4.73;2.70;;;11.60;1.00;;;;;;4988470;28;20532;-66
2022/03/29 06:24:55;;;;;;;1.73;1.40;;;11.60;1.00;;;;;;4983355;28;20555;-66
2022/03/29 06:27:33;;;;;;;4.10;3.80;;;11.60;1.00;;;;;;4991497;28;20813;-68
2022/03/29 06:30:12;;;;;;;1.53;1.17;;;11.70;1.00;;;;;;4983977;28;20480;-66
2022/03/29 06:32:50;;;;;;;2.90;2.70;;;11.70;1.00;;;;;;4985360;28;20496;-67
2022/03/29 06:35:28;;;;;;;3.80;1.03;;;11.70;1.00;;;;;;4991672;28;20441;-67
2022/03/29 06:38:04;;;;;;;2.90;1.70;;;11.70;1.00;;;;;;4991807;28;20488;-65
2022/03/29 06:40:47;;;;;;;2.90;1.40;;;11.70;1.00;;;;;;4990004;28;20481;-66
2022/03/29 06:43:37;;;;;;;2.60;2.10;;;11.80;1.00;;;;;;4992266;28;20446;-67
2022/03/29 06:46:13;;;;;;;3.33;3.13;;;11.80;1.00;;;;;;4991374;28;20994;-65
2022/03/29 06:48:42;;;;;;;5.60;1.77;;;11.80;1.00;;;;;;4991380;28;20850;-67
2022/03/29 06:51:36;;;;;;;4.17;3.63;;;11.90;1.00;;;;;;4992518;28;20544;-65
2022/03/29 06:54:11;;;;;;;2.73;2.57;;;11.90;1.00;;;;;;4992314;28;20477;-65
2022/03/29 06:56:41;;;;;;;8.63;2.73;;;12.00;1.00;;;;;;4989688;28;20445;-66
2022/03/29 06:59:19;;;;;;;6.63;2.17;;;12.00;1.00;;;;;;4991625;28;20449;-66
2022/03/29 07:01:48;;;;;;;12.13;7.40;;;11.90;1.00;;;;;;4990908;28;20515;-67
2022/03/29 07:04:24;;;;;;;15.33;1.77;;;11.90;1.00;;;;;;4991160;28;20449;-65
2022/03/29 07:06:52;;;;;;;1.97;1.60;;;11.90;1.00;;;;;;4977058;28;20501;-67
2022/03/29 07:12:15;;;;;;;11.20;5.40;;;11.90;1.00;;;;;;4989220;28;20446;-66
2022/03/29 07:14:44;;;;;;;6.30;3.83;;;12.00;1.00;;;;;;5005792;28;20445;-66
2022/03/29 07:17:15;;;;;;;1.30;1.20;;;12.00;1.00;;;;;;5001663;28;20451;-65
2022/03/29 07:19:43;;;;;;;0.70;0.40;;;12.00;1.00;;;;;;5000858;28;20473;-65
2022/03/29 07:22:11;;;;;;;4.33;3.93;;;12.10;1.00;;;;;;4993172;28;20521;-66
2022/03/29 07:24:39;;;;;;;2.30;1.10;;;12.10;1.00;;;;;;4994828;28;20441;-65
2022/03/29 07:27:07;;;;;;;2.73;2.30;;;12.10;1.00;;;;;;4994739;28;20449;-64
2022/03/29 07:29:35;;;;;;;8.03;2.80;;;12.10;1.00;;;;;;4995570;28;20576;-65
2022/03/29 07:32:05;;;;;;;3.17;1.97;;;12.20;1.00;;;;;;4995649;28;20478;-66
2022/03/29 07:34:35;;;;;;;3.60;1.30;;;12.10;1.00;;;;;;4995759;28;20455;-65
2022/03/29 07:37:05;;;;;;;1.20;0.73;;;;;;;;;;4982429;28;20461;-66
2022/03/29 07:39:33;;;;;;;5.90;3.40;;;;;;;;;;4989807;28;20465;-65
2022/03/29 07:42:01;;;;;;;2.77;2.57;;;12.00;1.00;;;;;;4994432;28;20948;-67
2022/03/29 07:44:29;;;;;;;1.67;1.53;;;12.10;1.00;;;;;;5002691;28;20445;-64
2022/03/29 07:46:57;;;;;;;10.40;5.20;;;12.10;1.00;;;;;;5009897;28;20476;-65
2022/03/29 07:49:29;;;;;;;1.93;1.30;;;12.10;1.00;;;;;;5013770;28;20467;-66
2022/03/29 07:52:18;;;;;;;4.13;3.63;;;12.10;1.00;;;;;;5012040;28;20494;-66
2022/03/29 07:54:46;;;;;;;2.20;2.00;;;12.10;1.00;;;;;;5001335;28;20516;-65
2022/03/29 07:57:14;;;;;;;0.80;0.50;;;12.10;1.00;;;;;;5003170;28;20452;-65
2022/03/29 08:00:31;;;;;;;0.60;0.20;;;12.30;99.90;;;;;;4996944;28;20466;-66
2022/03/29 08:02:52;;;;;;;2.50;1.63;;;12.30;99.90;;;;;;4993656;28;20441;-65
2022/03/29 08:05:22;;;;;;;0.60;0.10;;;12.40;99.90;;;;;;4990218;28;20495;-65
2022/03/29 08:07:50;;;;;;;3.17;2.57;;;12.40;99.90;;;;;;5002694;28;20444;-66
2022/03/29 08:10:19;;;;;;;3.03;0.87;;;12.50;99.90;;;;;;4993080;28;20487;-65
2022/03/29 08:12:47;;;;;;;0.60;0.20;;;12.60;99.90;;;;;;5004525;28;20452;-65
2022/03/29 08:15:14;;;;;;;3.03;2.00;;;12.60;99.90;;;;;;4994368;28;20452;-65
2022/03/29 08:17:45;;;;;;;6.00;2.13;;;12.60;99.90;;;;;;4991329;28;20476;-65
2022/03/29 08:20:13;;;;;;;1.70;1.40;;;12.60;99.90;;;;;;4991897;28;20475;-65
2022/03/29 08:22:44;;;;;;;0.87;0.87;;;12.60;99.90;;;;;;4993821;28;20445;-66
2022/03/29 08:25:13;;;;;;;3.63;2.80;;;12.00;99.90;;;;;;4992862;28;20469;-66
2022/03/29 08:27:41;;;;;;;0.60;0.30;;;12.60;99.90;;;;;;4988720;28;20481;-67
2022/03/29 08:30:10;;;;;;;4.50;2.00;;;12.70;99.90;;;;;;4990812;28;20461;-66
2022/03/29 08:32:38;;;;;;;2.03;1.93;;;12.70;99.90;;;;;;4993531;28;20463;-66
2022/03/29 08:35:08;;;;;;;0.60;0.10;;;12.60;99.90;;;;;;4992924;28;20951;-66
2022/03/29 08:37:37;;;;;;;1.67;1.17;;;12.60;99.90;;;;;;4993714;28;20461;-67
2022/03/29 08:40:11;;;;;;;2.93;1.37;;;12.70;99.90;;;;;;4985547;28;20562;-66
2022/03/29 08:42:39;;;;;;;7.20;1.57;;;12.70;99.90;;;;;;4999970;28;20453;-65
2022/03/29 08:45:08;;;;;;;2.90;1.73;;;12.70;99.90;;;;;;5002678;28;20449;-66
2022/03/29 08:47:36;;;;;;;0.60;0.20;;;12.70;99.90;;;;;;5002074;28;20500;-67
2022/03/29 08:50:05;;;;;;;0.60;0.10;;;12.80;99.90;;;;;;5005177;28;20515;-66
2022/03/29 08:52:33;;;;;;;0.60;0.10;;;12.90;99.90;;;;;;4997594;28;20481;-67
2022/03/29 08:55:03;;;;;;;2.30;1.27;;;13.00;99.90;;;;;;4997805;28;20456;-68
2022/03/29 08:57:32;;;;;;;2.47;2.37;;;13.00;99.90;;;;;;4985807;28;20462;-64
2022/03/29 09:00:01;;;;;;;0.97;0.40;;;12.90;99.90;;;;;;4998131;28;20523;-66
2022/03/29 09:02:34;;;;;;;0.60;0.10;;;13.00;99.90;;;;;;4995213;28;20477;-65
2022/03/29 09:05:13;;;;;;;0.77;0.43;;;13.00;99.90;;;;;;4992591;28;20452;-66
2022/03/29 09:07:55;;;;;;;0.60;0.20;;;;;;;;;;4990874;28;20500;-66
2022/03/29 09:10:38;;;;;;;1.27;1.17;;;13.30;99.90;;;;;;4973656;28;20557;-65
2022/03/29 09:13:17;;;;;;;0.60;0.53;;;13.30;99.90;;;;;;4973648;28;20450;-66
2022/03/29 09:15:45;;;;;;;0.60;0.30;;;13.40;99.90;;;;;;4973617;28;20446;-66
2022/03/29 09:18:13;;;;;;;0.60;0.10;;;;;;;;;;4983566;28;20794;-66
2022/03/29 09:20:41;;;;;;;0.60;0.10;;;13.60;99.90;;;;;;4986866;28;20505;-66
2022/03/29 09:23:13;;;;;;;0.60;0.17;;;;;;;;;;4992974;28;20937;-66
2022/03/29 09:25:47;;;;;;;0.60;0.10;;;13.80;99.90;;;;;;4990853;28;20460;-66
2022/03/29 09:28:21;;;;;;;0.60;0.10;;;13.90;99.90;;;;;;4993581;28;20447;-66
2022/03/29 09:30:50;;;;;;;0.60;0.10;;;14.10;99.90;;;;;;4994641;28;20476;-66
2022/03/29 09:33:20;;;;;;;1.03;1.00;;;14.30;99.90;;;;;;4994869;28;20467;-66
2022/03/29 09:35:54;;;;;;;0.60;0.20;;;14.30;99.90;;;;;;4994194;28;20461;-66
2022/03/29 09:38:27;;;;;;;1.03;0.97;;;14.40;99.90;;;;;;4992905;28;20463;-67
2022/03/29 09:40:56;;;;;;;0.60;0.10;;;14.50;99.90;;;;;;4991664;28;20478;-66
2022/03/29 09:43:28;;;;;;;0.80;0.50;;;14.60;99.90;;;;;;5003847;28;20843;-66
2022/03/29 09:45:59;;;;;;;1.47;1.37;;;14.60;99.90;;;;;;4994419;28;20465;-64
2022/03/29 09:48:31;;;;;;;0.60;0.10;;;14.70;99.90;;;;;;5004141;28;20445;-65
2022/03/29 09:51:17;;;;;;;0.60;0.10;;;14.80;99.90;;;;;;5008982;28;20472;-66
2022/03/29 09:53:48;;;;;;;0.60;0.20;;;14.80;99.90;;;;;;5012158;28;20539;-66
2022/03/29 09:56:19;;;;;;;0.60;0.10;;;14.90;99.90;;;;;;5001310;28;20461;-66
2022/03/29 09:59:10;;;;;;;0.60;0.20;;;;;;;;;;4992692;28;20459;-67
2022/03/29 10:01:49;;;;;;;1.93;0.73;;;15.10;99.90;;;;;;5004786;28;21081;-67
2022/03/29 10:04:18;;;;;;;0.60;0.10;;;15.10;99.90;;;;;;4990115;28;20438;-66
2022/03/29 10:06:48;;;;;;;0.70;0.37;;;17.40;99.90;;;;;;4998737;28;20473;-67
2022/03/29 10:09:26;;;;;;;0.60;0.10;;;15.40;99.90;;;;;;4998076;28;20445;-66
2022/03/29 10:11:57;;;;;;;0.60;0.10;;;15.40;99.90;;;;;;4990285;28;20446;-65
2022/03/29 10:14:27;;;;;;;0.60;0.10;;;15.50;99.90;;;;;;4979681;28;20452;-66
2022/03/29 10:16:56;;;;;;;0.60;0.10;;;15.50;99.90;;;;;;4978580;28;20454;-67
2022/03/29 10:19:25;;;;;;;0.60;0.20;;;15.60;99.90;;;;;;4999896;28;20787;-64
2022/03/29 10:21:55;;;;;;;0.60;0.10;;;15.60;99.90;;;;;;4989406;28;20452;-66
2022/03/29 10:24:23;;;;;;;0.70;0.57;;;15.70;99.90;;;;;;4981587;28;20912;-65
2022/03/29 10:26:55;;;;;;;0.60;0.10;;;15.60;99.90;;;;;;4983077;28;20488;-66
2022/03/29 10:29:24;;;;;;;0.60;0.20;;;15.70;99.90;;;;;;4990301;28;20445;-66
2022/03/29 10:31:55;;;;;;;0.60;0.30;;;15.60;99.90;;;;;;4988869;28;20460;-68
2022/03/29 10:34:25;;;;;;;0.60;0.30;;;15.60;99.90;;;;;;4992511;28;20939;-67
2022/03/29 10:37:10;;;;;;;0.60;0.10;;;15.60;99.90;;;;;;4991418;28;20513;-65
2022/03/29 10:39:49;;;;;;;0.60;0.13;;;15.70;99.90;;;;;;4993400;28;20470;-65
2022/03/29 10:42:37;;;;;;;0.60;0.10;;;15.70;99.90;;;;;;4991753;28;20457;-66
2022/03/29 10:45:12;;;;;;;0.60;0.10;;;15.70;99.90;;;;;;4991772;28;20444;-65
2022/03/29 10:48:09;;;;;;;0.83;0.67;;;15.70;99.90;;;;;;5002447;28;20475;-64
2022/03/29 10:51:09;;;;;;;0.60;0.10;;;15.70;99.90;;;;;;5007417;28;20976;-65
2022/03/29 10:53:42;;;;;;;4.10;2.13;;;15.70;99.90;;;;;;4958333;28;20461;-66
2022/03/29 10:56:23;;;;;;;0.60;0.10;;;15.70;99.90;;;;;;4976298;28;20446;-66
2022/03/29 10:59:10;;;;;;;0.60;0.20;;;;;;;;;;4976296;28;20437;-65
2022/03/29 11:01:39;;;;;;;0.60;0.10;;;15.80;99.90;;;;;;4977294;28;20439;-67
2022/03/29 11:04:23;;;;;;;0.60;0.10;;;15.80;99.90;;;;;;4993388;28;20445;-66
2022/03/29 11:07:14;;;;;;;0.60;0.20;;;15.90;99.90;;;;;;4995317;28;20788;-66
2022/03/29 11:09:50;;;;;;;0.60;0.10;;;16.10;99.90;;;;;;4995003;28;20473;-65
2022/03/29 11:12:51;;;;;;;0.60;0.10;;;16.10;99.90;;;;;;4996007;28;20435;-66
2022/03/29 11:15:39;;;;;;;0.60;0.10;;;16.20;99.90;;;;;;4995954;28;20442;-65
2022/03/29 11:18:49;;;;;;;2.80;1.70;;;16.30;99.90;;;;;;5000624;28;20431;-67
2022/03/29 11:21:41;;;;;;;0.60;0.10;;;16.40;99.90;;;;;;4999803;28;20474;-65
2022/03/29 11:24:13;;;;;;;0.60;0.10;;;16.40;99.90;;;;;;4991131;28;20446;-66
2022/03/29 11:26:56;;;;;;;0.60;0.10;;;16.40;99.90;;;;;;4999685;28;20963;-66
2022/03/29 11:29:25;;;;;;;3.70;2.60;;;16.50;99.90;;;;;;5014757;28;20528;-65
2022/03/29 11:31:55;;;;;;;0.60;0.20;;;16.50;99.90;;;;;;5009432;28;20930;-66
2022/03/29 11:34:22;;;;;;;2.53;1.23;;;16.50;99.90;;;;;;4995672;28;20476;-65
2022/03/29 11:36:52;;;;;;;0.60;0.10;;;16.40;99.90;;;;;;4990168;28;20449;-65
2022/03/29 11:39:28;;;;;;;0.60;0.10;;;16.30;99.90;;;;;;4976383;28;20454;-65
2022/03/29 11:41:56;;;;;;;0.60;0.10;;;16.40;99.90;;;;;;4985426;28;20482;-67
2022/03/29 11:44:26;;;;;;;0.60;0.30;;;16.40;99.90;;;;;;4995532;28;20448;-66
2022/03/29 11:46:56;;;;;;;0.60;0.20;;;16.60;99.90;;;;;;4985044;28;20455;-65
2022/03/29 11:49:27;;;;;;;0.60;0.10;;;16.70;99.90;;;;;;4986356;28;20442;-65
2022/03/29 11:52:12;;;;;;;1.67;1.03;;;19.80;99.90;;;;;;4986705;28;20500;-66
2022/03/29 11:54:45;;;;;;;0.60;0.10;;;16.80;99.90;;;;;;4985505;28;20456;-65
2022/03/29 11:57:21;;;;;;;0.60;0.20;;;16.80;99.90;;;;;;4986197;28;20445;-66
2022/03/29 11:59:50;;;;;;;1.57;1.33;;;17.10;99.90;;;;;;4985430;28;21003;-65
2022/03/29 12:02:25;;;;;;;0.60;0.20;;;17.10;99.90;;;;;;4984907;28;20437;-66
2022/03/29 12:04:54;;;;;;;0.60;0.10;;;17.20;99.90;;;;;;4992329;28;20467;-64
2022/03/29 12:07:38;;;;;;;0.60;0.10;;;17.20;99.90;;;;;;4986963;28;20471;-65
2022/03/29 12:10:07;;;;;;;0.60;0.10;;;17.30;99.90;;;;;;4985922;28;20471;-65
2022/03/29 12:12:35;;;;;;;0.60;0.20;;;17.30;99.90;;;;;;4984088;28;20503;-65
2022/03/29 12:15:05;;;;;;;0.80;0.57;;;17.40;99.90;;;;;;4985802;28;20438;-65
2022/03/29 12:17:34;;;;;;;0.60;0.20;;;17.40;99.90;;;;;;4986353;28;20444;-65
2022/03/29 12:20:02;;;;;;;0.60;0.10;;;17.40;99.90;;;;;;4984718;28;20546;-66
2022/03/29 12:22:30;;;;;;;0.60;0.20;;;17.40;99.90;;;;;;4984698;28;20441;-66
2022/03/29 12:25:00;;;;;;;0.60;0.20;;;17.50;99.90;;;;;;4986387;28;20452;-65
2022/03/29 12:27:28;;;;;;;0.60;0.10;;;17.50;99.90;;;;;;4983272;28;20449;-66
2022/03/29 12:30:00;;;;;;;0.60;0.20;;;17.60;99.90;;;;;;4987050;28;20465;-67
2022/03/29 12:32:29;;;;;;;0.60;0.10;;;17.60;99.90;;;;;;4977678;28;20459;-65
2022/03/29 12:34:59;;;;;;;0.60;0.37;;;17.60;99.90;;;;;;4978688;28;20450;-65
2022/03/29 12:37:27;;;;;;;0.60;0.20;;;17.60;99.90;;;;;;4975840;28;20946;-66
2022/03/29 12:39:57;;;;;;;0.60;0.13;;;17.70;99.90;;;;;;4983501;28;20473;-65
2022/03/29 12:42:31;;;;;;;0.60;0.30;;;17.70;99.90;;;;;;4976800;28;20488;-65
2022/03/29 12:45:00;;;;;;;0.60;0.20;;;17.70;99.90;;;;;;4995404;28;20944;-66
2022/03/29 12:47:32;;;;;;;0.60;0.13;;;17.70;99.90;;;;;;4997169;28;20797;-66
2022/03/29 12:50:01;;;;;;;0.60;0.10;;;;;;;;;;5002314;28;20474;-67
2022/03/29 12:52:29;;;;;;;0.80;0.47;;;17.80;99.90;;;;;;4986615;28;20941;-66
2022/03/29 12:55:00;;;;;;;0.60;0.13;;;17.80;99.90;;;;;;5007636;28;20514;-67
2022/03/29 12:57:36;;;;;;;0.60;0.10;;;17.80;99.90;;;;;;5014724;28;20451;-67
2022/03/29 13:00:09;;;;;;;0.60;0.10;;;17.90;99.90;;;;;;5015025;28;20474;-67
2022/03/29 13:02:39;;;;;;;0.60;0.10;;;17.90;99.90;;;;;;4994845;28;20541;-67
2022/03/29 13:05:08;;;;;;;0.60;0.20;;;17.80;99.90;;;;;;4995161;28;20448;-68
2022/03/29 13:07:44;;;;;;;0.60;0.10;;;17.80;99.90;;;;;;5001399;28;20454;-66
2022/03/29 13:10:15;;;;;;;0.60;0.10;;;17.90;99.90;;;;;;4984797;28;20479;-68
2022/03/29 13:12:51;;;;;;;0.60;0.20;;;17.80;99.90;;;;;;4977107;28;20451;-66
2022/03/29 13:15:38;;;;;;;0.60;0.20;;;17.80;99.90;;;;;;4974959;28;20943;-66
2022/03/29 13:18:19;;;;;;;0.60;0.10;;;17.90;99.90;;;;;;4975014;28;20454;-67
2022/03/29 13:21:11;;;;;;;0.60;0.10;;;17.70;99.90;;;;;;4986409;28;20539;-67
2022/03/29 13:23:59;;;;;;;0.60;0.10;;;17.70;99.90;;;;;;4989283;28;20444;-64